Terminal Aerodrome Forecast
Issued by NWS

Home | Current Version | Previous Version | Text Only | Print | Product List | Glossary On
Versions: 1 2 3 4 5 6 7 8 9 10 11 12 13 14 15 16
000
FTUS45 KFGZ 240400 AAA
TAFSEZ
TAF AMD
KSEZ 240413Z 2404/2424 VRB06KT P6SM SCT100 BKN200
      TEMPO 2404/2406 14012G18KT
     FM241800 22010KT P6SM BKN100 PROB30 2420/2424 VRB15G25KT -TSRA
      BKN080CB=

USA.gov is the U.S. government's official web portal to all federal, state and local government web resources and services.